Aviation Digital Data Service (ADDS)

Output produced by METARs form (1719 UTC 30 October 2020)
found at http://www.aviationweather.gov/metar/data/
 
KDAB 301653Z 33007KT 10SM CLR 23/13 A3001 RMK AO2 SLP162 T02280128
KDAB 301507Z 3015/3112 35008KT P6SM SKC 
     FM310000 VRB03KT P6SM SKC